Airfield :
LOGIN :

Register | Disclaimer

   EN    FR    IT 

 










Legend :    VFR   Marginal VFR   IFR   Intensive IFR   Very Intensive IFR
Visi :
Ceiling :
>= 8 km
>= 3000ft
5 to 8 km
1000 to 3000 ft
1500m to 5 km
500 to 1000 ft
800 to 1500m
200 to 500 ft
< 800m
< 200 ft
Symbols :   Thunderstorms  Fog  Heavy snow  Heavy precipitations  Wind > 20 kt
SIGMETs :     Misc.  Thunderstorms  Icing  Turbulence  Mountain Waves  Volcanic Ashes






- Airport Elevation : 978 ft
- IATA code : LNZ


LOWL - Linz

CURRENT METAR :
  • 120650Z 08006KT CAVOK 22/18 Q1019 NOSIG

EXPIRED METARs :
  • 120620Z 09007KT CAVOK 21/18 Q1019 NOSIG
  • 120550Z 10005KT 060V140 CAVOK 21/18 Q1018 NOSIG
  • 120520Z 10003KT 070V130 CAVOK 20/17 Q1018 NOSIG
  • 120450Z 09004KT CAVOK 18/17 Q1018 NOSIG
  • 120420Z 08005KT CAVOK 17/17 Q1018 NOSIG

TAF TAF LOWL
Valid from the 12 at 06:00 until the 13 at 06:00 UTC


120515Z 1206/1306 08004KT CAVOK TX30/1215Z TN17/1304Z
TEMPO 1208/1217 10010KT 9999 FEW050



MET'MAP, your aeronautical weather chart ! - Copyright ORBIFLY December 2007 - Disclaimer

ORBIFLY MET'MAP TEAM :

Programming & Development : Alexandra Zaïnal
Concept & original design : Baudouin d'Aumeries
Assistance for programming : Marc-Olivier Méhu
Technical & hardware support : Manuel Goepfert

Contact : metmap@orbifly.com




SOURCES & CREDITS :

   NOAA